Time;durP1;ratioP1;P1;durP2;ratioP2;P2;SDS_P1;SDS_P2;PMS_P1;PMS_P2;Temp;Humidity;BMP_temperature;BMP_pressure;BME280_temperature;BME280_humidity;BME280_pressure;Samples;Min_cycle;Max_cycle;Signal;HPM_P1;HPM_P2
2022/12/02 00:29:56;;;;;;;46.58;22.67;;;;;;;;;;6157299;23;20199;-92
2022/12/02 00:32:23;;;;;;;53.80;24.60;;;;;;;;;;6092912;23;20174;-92
2022/12/02 00:34:49;;;;;;;47.78;23.30;;;;;;;;;;6117059;23;20154;-93
2022/12/02 00:37:20;;;;;;;41.65;22.17;;;;;;;;;;6092748;23;20163;-92
2022/12/02 00:40:01;;;;;;;49.47;23.83;;;;;;;;;;6089928;23;20139;-91
2022/12/02 00:42:34;;;;;;;44.42;20.92;;;;;;;;;;6118311;23;20551;-92
2022/12/02 00:47:47;;;;;;;44.20;20.77;;;;;;;;;;6122886;23;20179;-92
2022/12/02 00:50:15;;;;;;;40.13;19.13;;;;;;;;;;6122546;23;20173;-91
2022/12/02 00:52:41;;;;;;;38.10;19.52;;;;;;;;;;6096864;23;20150;-92
2022/12/02 00:55:08;;;;;;;39.60;19.63;;;;;;;;;;6094809;23;20199;-92
2022/12/02 01:10:37;;;;;;;32.67;18.13;;;;;;;;;;6175306;22;20595;-91
2022/12/02 01:13:04;;;;;;;36.10;18.20;;;;;;;;;;6180280;23;20183;-92
2022/12/02 01:15:30;;;;;;;35.20;17.70;;;;;;;;;;6182720;23;20179;-93
2022/12/02 01:17:56;;;;;;;37.28;18.40;;;;;;;;;;6175073;23;20312;-91
2022/12/02 01:20:26;;;;;;;28.45;16.50;;;;;;;;;;6179319;23;20183;-91
2022/12/02 01:22:55;;;;;;;32.03;17.85;;;;;;;;;;6204527;23;20181;-91
2022/12/02 01:25:21;;;;;;;27.80;14.88;;;;;;;;;;6179847;23;20179;-92
2022/12/02 01:27:48;;;;;;;30.33;16.83;;;;;;;;;;6180938;23;20175;-92
2022/12/02 01:30:14;;;;;;;32.28;17.55;;;;;;;;;;6181096;23;20187;-92
2022/12/02 01:32:43;;;;;;;29.77;17.17;;;;;;;;;;6181445;23;20160;-92
2022/12/02 01:35:14;;;;;;;27.23;16.50;;;;;;;;;;6180806;23;20156;-92
2022/12/02 01:37:40;;;;;;;30.10;16.55;;;;;;;;;;6182920;23;20163;-91
2022/12/02 01:40:13;;;;;;;33.58;17.65;;;;;;;;;;6208732;23;20163;-91
2022/12/02 01:42:47;;;;;;;27.58;16.45;;;;;;;;;;6178952;23;20275;-91
2022/12/02 01:45:23;;;;;;;32.60;17.65;;;;;;;;;;6182345;23;20162;-92
2022/12/02 01:47:49;;;;;;;31.77;19.17;;;;;;;;;;6205198;23;20156;-91
2022/12/02 01:50:16;;;;;;;42.20;20.10;;;;;;;;;;6183376;23;20140;-90
2022/12/02 01:52:53;;;;;;;41.33;19.45;;;;;;;;;;6209724;23;20183;-91
2022/12/02 01:55:23;;;;;;;35.40;18.80;;;;;;;;;;6182216;23;20145;-92
2022/12/02 01:57:52;;;;;;;43.78;19.83;;;;;;;;;;6184178;23;20156;-92
2022/12/02 02:00:19;;;;;;;38.90;20.90;;;;;;;;;;6184877;23;20163;-91
2022/12/02 02:02:45;;;;;;;41.40;21.00;;;;;;;;;;6181203;23;20179;-91
2022/12/02 02:05:23;;;;;;;39.42;21.30;;;;;;;;;;6180268;23;20163;-91
2022/12/02 02:07:51;;;;;;;46.80;22.15;;;;;;;;;;6178393;23;20140;-90
2022/12/02 02:10:22;;;;;;;48.38;23.58;;;;;;;;;;6181885;23;20219;-91
2022/12/02 02:12:50;;;;;;;50.63;24.10;;;;;;;;;;6181474;23;20195;-92
2022/12/02 02:15:18;;;;;;;51.42;22.25;;;;;;;;;;6181892;23;20167;-92
2022/12/02 02:17:44;;;;;;;50.60;23.80;;;;;;;;;;6186080;23;20148;-92
2022/12/02 02:20:13;;;;;;;53.70;22.33;;;;;;;;;;6185945;23;20160;-91
2022/12/02 02:25:59;;;;;;;45.03;22.65;;;;;;;;;;6195378;23;20155;-90
2022/12/02 03:15:26;;;;;;;58.78;24.05;;;;;;;;;;6203218;22;20222;-91
2022/12/02 03:30:58;;;;;;;50.55;23.17;;;;;;;;;;6204260;22;20200;-91
2022/12/02 03:33:25;;;;;;;50.00;23.58;;;;;;;;;;6185233;23;20164;-91
2022/12/02 03:43:57;;;;;;;54.25;25.55;;;;;;;;;;6166452;22;20207;-89
2022/12/02 03:46:24;;;;;;;57.08;23.83;;;;;;;;;;6155438;23;20153;-90
2022/12/02 03:48:50;;;;;;;47.97;22.80;;;;;;;;;;6153039;23;20189;-89
2022/12/02 07:52:12;;;;;;;86.13;28.02;;;;;;;;;;6183988;22;20768;-86
2022/12/02 07:54:38;;;;;;;64.47;24.48;;;;;;;;;;6148360;23;20238;-86
2022/12/02 07:57:04;;;;;;;70.47;28.30;;;;;;;;;;6145445;23;20252;-86
2022/12/02 07:59:32;;;;;;;61.40;25.87;;;;;;;;;;6175900;23;20397;-85
2022/12/02 08:01:58;;;;;;;60.85;25.10;;;;;;;;;;6145023;23;20489;-86
2022/12/02 08:04:24;;;;;;;55.60;26.42;;;;;;;;;;6151148;23;20260;-89
2022/12/02 08:07:08;;;;;;;59.75;29.00;;;;;;;;;;6172915;23;20160;-90
2022/12/02 08:09:34;;;;;;;64.80;25.65;;;;;;;;;;6166186;23;20153;-90
2022/12/02 08:12:01;;;;;;;58.33;25.27;;;;;;;;;;6153023;23;20156;-91
2022/12/02 08:27:26;;;;;;;53.53;24.08;;;;;;;;;;6189449;23;20273;-89
2022/12/02 08:42:54;;;;;;;53.85;23.13;;;;;;;;;;6162230;23;20538;-87
2022/12/02 08:45:20;;;;;;;45.20;21.48;;;;;;;;;;6132050;23;20157;-89
2022/12/02 08:47:56;;;;;;;47.83;21.85;;;;;;;;;;6151833;23;20593;-89
2022/12/02 08:50:22;;;;;;;45.90;22.45;;;;;;;;;;6128416;23;20265;-89
2022/12/02 08:52:49;;;;;;;45.38;22.48;;;;;;;;;;6139079;23;20164;-89
2022/12/02 08:55:16;;;;;;;56.80;28.17;;;;;;;;;;6147034;23;20598;-92
2022/12/02 08:57:43;;;;;;;52.30;24.65;;;;;;;;;;6156329;23;20161;-89
2022/12/02 09:00:10;;;;;;;49.20;23.07;;;;;;;;;;6123748;23;20247;-89
2022/12/02 09:02:36;;;;;;;45.72;20.10;;;;;;;;;;6123926;23;20438;-88
2022/12/02 09:05:02;;;;;;;44.58;22.20;;;;;;;;;;6126439;23;20169;-91
2022/12/02 09:07:29;;;;;;;54.42;23.40;;;;;;;;;;6132253;23;20359;-90
2022/12/02 09:09:57;;;;;;;42.33;22.63;;;;;;;;;;6132613;23;20181;-90
2022/12/02 09:12:26;;;;;;;44.33;22.35;;;;;;;;;;6131902;23;20220;-90
2022/12/02 09:14:52;;;;;;;44.88;22.45;;;;;;;;;;6132997;23;20179;-89
2022/12/02 09:17:20;;;;;;;37.30;19.00;;;;;;;;;;6130876;23;20165;-90
2022/12/02 09:19:46;;;;;;;41.75;22.08;;;;;;;;;;6134374;23;20156;-90
2022/12/02 09:22:12;;;;;;;40.90;22.00;;;;;;;;;;6136893;23;20194;-90
2022/12/02 09:24:41;;;;;;;53.20;22.97;;;;;;;;;;6140311;23;20200;-89
2022/12/02 09:27:07;;;;;;;40.78;21.35;;;;;;;;;;6148169;23;20396;-90
2022/12/02 09:29:33;;;;;;;42.47;21.42;;;;;;;;;;6138274;23;20204;-90
2022/12/02 09:32:01;;;;;;;35.75;20.27;;;;;;;;;;6141105;23;20872;-92
2022/12/02 09:34:28;;;;;;;49.13;24.35;;;;;;;;;;6138849;23;20157;-91
2022/12/02 09:36:56;;;;;;;40.03;21.35;;;;;;;;;;6165598;23;20148;-90
2022/12/02 09:39:22;;;;;;;42.38;23.25;;;;;;;;;;6133034;23;20149;-93
2022/12/02 09:41:51;;;;;;;49.80;22.88;;;;;;;;;;6138555;23;20269;-92
2022/12/02 09:44:18;;;;;;;38.08;19.92;;;;;;;;;;6137570;23;20212;-92
2022/12/02 09:46:50;;;;;;;41.72;23.45;;;;;;;;;;6139510;23;20161;-92
2022/12/02 09:49:22;;;;;;;36.25;21.55;;;;;;;;;;6162490;23;20155;-91
2022/12/02 09:51:49;;;;;;;36.00;19.95;;;;;;;;;;6137607;23;20171;-92
2022/12/02 09:54:16;;;;;;;39.13;19.85;;;;;;;;;;6164324;23;20609;-91
2022/12/02 09:56:42;;;;;;;35.17;20.50;;;;;;;;;;6137923;23;20357;-93
2022/12/02 09:59:13;;;;;;;39.25;19.20;;;;;;;;;;6164227;23;20145;-91
2022/12/02 10:01:40;;;;;;;36.78;21.38;;;;;;;;;;6139588;23;20220;-91
2022/12/02 10:04:09;;;;;;;34.35;19.55;;;;;;;;;;6140249;23;20160;-93
2022/12/02 10:06:45;;;;;;;38.60;21.30;;;;;;;;;;6149929;23;20619;-91
2022/12/02 10:09:25;;;;;;;38.45;21.33;;;;;;;;;;6129012;23;20601;-90
2022/12/02 10:11:51;;;;;;;31.13;17.13;;;;;;;;;;6132942;23;20149;-90
2022/12/02 10:14:18;;;;;;;29.80;19.50;;;;;;;;;;6135940;23;20189;-86
2022/12/02 10:16:47;;;;;;;46.45;21.17;;;;;;;;;;6131131;23;20207;-88
2022/12/02 10:19:19;;;;;;;36.75;19.08;;;;;;;;;;6124348;23;20161;-89
2022/12/02 10:21:45;;;;;;;35.92;21.35;;;;;;;;;;6121869;23;20190;-88
2022/12/02 10:24:34;;;;;;;34.00;21.73;;;;;;;;;;6148662;23;20489;-90
2022/12/02 10:27:01;;;;;;;41.00;21.27;;;;;;;;;;6127846;23;20149;-88
2022/12/02 10:29:30;;;;;;;37.50;21.90;;;;;;;;;;6153373;23;20169;-88
2022/12/02 10:32:11;;;;;;;36.22;21.13;;;;;;;;;;6133885;23;20172;-89
2022/12/02 10:34:46;;;;;;;42.00;22.98;;;;;;;;;;6127359;23;20156;-91
2022/12/02 10:37:41;;;;;;;35.83;21.98;;;;;;;;;;6157697;23;20219;-90
2022/12/02 10:40:21;;;;;;;38.15;23.05;;;;;;;;;;6050519;23;20204;-89
2022/12/02 10:43:06;;;;;;;30.80;18.15;;;;;;;;;;6123606;23;20275;-90
2022/12/02 10:45:32;;;;;;;39.40;22.85;;;;;;;;;;6126899;23;20149;-88
2022/12/02 10:48:12;;;;;;;41.27;20.87;;;;;;;;;;6148820;23;20167;-88
2022/12/02 10:50:38;;;;;;;34.58;19.35;;;;;;;;;;6150442;23;20380;-89
2022/12/02 10:53:05;;;;;;;44.10;24.42;;;;;;;;;;6145558;23;20606;-89
2022/12/02 10:55:31;;;;;;;32.45;17.98;;;;;;;;;;6153809;23;20145;-88
2022/12/02 10:58:01;;;;;;;36.57;20.93;;;;;;;;;;6148975;23;20630;-88
2022/12/02 11:00:27;;;;;;;33.95;21.50;;;;;;;;;;6152981;23;20388;-88
2022/12/02 11:02:56;;;;;;;41.92;22.90;;;;;;;;;;6149580;23;20188;-89
2022/12/02 11:05:23;;;;;;;37.03;20.67;;;;;;;;;;6153465;23;20193;-89
2022/12/02 11:07:56;;;;;;;38.92;22.55;;;;;;;;;;6154545;23;20212;-88
2022/12/02 11:10:24;;;;;;;52.95;22.50;;;;;;;;;;6154842;23;20157;-89
2022/12/02 11:12:50;;;;;;;44.10;22.15;;;;;;;;;;6151770;23;20161;-90
2022/12/02 11:15:36;;;;;;;41.47;23.70;;;;;;;;;;6126538;23;20172;-87
2022/12/02 11:18:18;;;;;;;43.90;23.50;;;;;;;;;;6153399;23;20157;-88
2022/12/02 11:20:47;;;;;;;38.15;21.00;;;;;;;;;;6157501;23;20873;-90
2022/12/02 11:23:21;;;;;;;39.45;22.25;;;;;;;;;;6153564;23;20173;-89
2022/12/02 11:25:47;;;;;;;40.10;23.58;;;;;;;;;;6149544;23;20496;-88
2022/12/02 11:28:20;;;;;;;37.53;21.23;;;;;;;;;;6150747;23;20172;-90
2022/12/02 11:30:46;;;;;;;33.28;20.23;;;;;;;;;;6152594;23;20184;-88
2022/12/02 11:33:13;;;;;;;33.95;19.35;;;;;;;;;;6148249;23;20697;-89
2022/12/02 11:35:58;;;;;;;39.13;21.95;;;;;;;;;;6153696;23;20130;-86
2022/12/02 11:38:25;;;;;;;40.75;22.38;;;;;;;;;;6157407;23;20176;-87
2022/12/02 11:40:53;;;;;;;47.15;24.00;;;;;;;;;;6161305;23;20153;-87
2022/12/02 11:43:38;;;;;;;40.67;23.00;;;;;;;;;;6143768;23;20272;-89
2022/12/02 11:46:04;;;;;;;42.67;22.60;;;;;;;;;;6151798;23;20165;-86
2022/12/02 11:48:33;;;;;;;50.60;24.45;;;;;;;;;;6150128;23;20161;-85
2022/12/02 11:50:59;;;;;;;44.10;23.10;;;;;;;;;;6152953;23;20152;-88
2022/12/02 11:53:28;;;;;;;59.15;24.90;;;;;;;;;;6148477;23;20253;-90
2022/12/02 11:55:54;;;;;;;52.40;23.85;;;;;;;;;;6153565;23;20140;-89
2022/12/02 11:58:29;;;;;;;41.97;20.95;;;;;;;;;;6150152;23;20163;-89
2022/12/02 12:01:01;;;;;;;43.88;23.63;;;;;;;;;;6150690;23;20156;-87
2022/12/02 12:03:27;;;;;;;50.35;24.15;;;;;;;;;;6148640;23;20363;-89
2022/12/02 12:06:15;;;;;;;50.72;25.60;;;;;;;;;;6150658;23;20153;-89
2022/12/02 12:08:49;;;;;;;44.95;24.45;;;;;;;;;;6149804;23;20159;-89
2022/12/02 12:11:18;;;;;;;47.42;25.15;;;;;;;;;;6156110;23;20161;-89
2022/12/02 12:14:00;;;;;;;43.25;23.83;;;;;;;;;;6156381;23;20258;-89
2022/12/02 12:16:26;;;;;;;51.45;17.88;;;;;;;;;;6167731;23;20164;-88
2022/12/02 12:18:53;;;;;;;43.20;23.63;;;;;;;;;;6162551;23;20252;-89
2022/12/02 12:21:31;;;;;;;44.67;24.60;;;;;;;;;;6159862;23;20184;-91
2022/12/02 12:24:20;;;;;;;44.37;23.77;;;;;;;;;;6147539;23;20156;-90
2022/12/02 12:26:52;;;;;;;48.25;22.40;;;;;;;;;;6147769;23;20479;-87
2022/12/02 12:29:20;;;;;;;43.20;23.25;;;;;;;;;;6149398;23;20165;-87
2022/12/02 12:31:46;;;;;;;50.67;25.27;;;;;;;;;;6151518;23;20178;-88
2022/12/02 12:34:15;;;;;;;40.13;21.67;;;;;;;;;;6163672;23;20164;-88
2022/12/02 12:36:41;;;;;;;41.13;22.02;;;;;;;;;;6148796;23;20391;-90
2022/12/02 12:39:08;;;;;;;50.63;25.00;;;;;;;;;;6151075;23;20291;-89
2022/12/02 12:41:34;;;;;;;37.75;20.92;;;;;;;;;;6145460;23;20508;-88
2022/12/02 12:44:00;;;;;;;43.40;23.52;;;;;;;;;;6156915;23;20629;-86
2022/12/02 12:46:26;;;;;;;44.77;22.40;;;;;;;;;;6162709;23;20300;-87
2022/12/02 12:48:55;;;;;;;49.53;24.63;;;;;;;;;;6165540;23;20709;-88
2022/12/02 12:51:28;;;;;;;41.47;23.02;;;;;;;;;;6152211;23;20168;-89
2022/12/02 12:54:02;;;;;;;45.47;23.77;;;;;;;;;;6149564;23;20164;-88
2022/12/02 12:56:28;;;;;;;42.53;20.52;;;;;;;;;;6147696;23;20579;-90
2022/12/02 12:58:54;;;;;;;46.53;21.87;;;;;;;;;;6151433;23;20175;-88
2022/12/02 13:01:23;;;;;;;45.10;25.20;;;;;;;;;;6147850;23;20426;-88
2022/12/02 13:03:49;;;;;;;45.63;24.05;;;;;;;;;;6152204;23;20404;-88
2022/12/02 13:06:15;;;;;;;46.10;24.27;;;;;;;;;;6147617;23;20621;-88
2022/12/02 13:08:41;;;;;;;41.90;24.25;;;;;;;;;;6149090;23;20408;-90
2022/12/02 13:11:07;;;;;;;44.33;23.73;;;;;;;;;;6146404;23;20152;-88
2022/12/02 13:13:36;;;;;;;39.92;22.00;;;;;;;;;;6124981;23;20238;-87
2022/12/02 13:16:02;;;;;;;49.17;23.83;;;;;;;;;;6145447;23;20277;-86
2022/12/02 13:18:31;;;;;;;45.35;24.48;;;;;;;;;;6149671;23;20164;-87
2022/12/02 13:21:00;;;;;;;43.50;22.02;;;;;;;;;;6155799;23;20598;-88
2022/12/02 13:23:26;;;;;;;44.05;25.33;;;;;;;;;;6152593;23;20168;-90
2022/12/02 13:25:55;;;;;;;44.88;24.75;;;;;;;;;;6151447;23;20199;-89
2022/12/02 13:28:27;;;;;;;52.05;24.80;;;;;;;;;;6124621;23;20152;-89
2022/12/02 13:30:54;;;;;;;51.58;24.45;;;;;;;;;;6145609;23;20165;-89
2022/12/02 13:33:39;;;;;;;52.33;26.27;;;;;;;;;;6145472;23;20188;-87
2022/12/02 13:36:05;;;;;;;43.97;23.02;;;;;;;;;;6152687;23;20407;-89
2022/12/02 13:38:31;;;;;;;54.95;26.95;;;;;;;;;;6148914;23;20277;-88
2022/12/02 13:40:57;;;;;;;42.05;23.75;;;;;;;;;;6147895;23;20455;-88
2022/12/02 13:43:24;;;;;;;50.33;25.80;;;;;;;;;;6146037;23;20185;-85
2022/12/02 13:45:50;;;;;;;44.53;22.50;;;;;;;;;;6158069;23;20149;-90
2022/12/02 13:48:16;;;;;;;48.78;23.50;;;;;;;;;;6153770;23;20169;-91
2022/12/02 13:50:45;;;;;;;47.65;23.90;;;;;;;;;;6153784;23;20156;-90
2022/12/02 13:53:11;;;;;;;48.85;25.30;;;;;;;;;;6156322;23;20175;-89
2022/12/02 13:55:37;;;;;;;52.47;24.25;;;;;;;;;;6162636;23;20167;-89
2022/12/02 13:58:09;;;;;;;42.75;19.45;;;;;;;;;;6155765;23;20165;-88
2022/12/02 14:00:41;;;;;;;49.58;23.63;;;;;;;;;;6158356;23;20153;-90
2022/12/02 14:03:27;;;;;;;46.70;23.88;;;;;;;;;;6135287;23;20188;-89
2022/12/02 14:06:00;;;;;;;41.78;23.95;;;;;;;;;;6163971;23;20148;-90
2022/12/02 14:08:26;;;;;;;44.70;23.70;;;;;;;;;;6161149;23;20160;-89
2022/12/02 14:10:54;;;;;;;40.42;22.58;;;;;;;;;;6155861;23;20160;-90
2022/12/02 14:13:20;;;;;;;36.67;21.92;;;;;;;;;;6155958;23;20176;-87
2022/12/02 14:15:46;;;;;;;34.28;20.45;;;;;;;;;;6157614;23;20161;-89
2022/12/02 14:18:17;;;;;;;44.00;21.38;;;;;;;;;;6154690;23;20156;-90
2022/12/02 14:20:45;;;;;;;47.67;23.90;;;;;;;;;;6154155;23;20330;-90
2022/12/02 14:23:14;;;;;;;48.63;24.23;;;;;;;;;;6157898;23;20212;-90
2022/12/02 14:25:43;;;;;;;45.58;23.17;;;;;;;;;;6135990;23;20218;-91
2022/12/02 14:28:09;;;;;;;42.75;22.52;;;;;;;;;;6170093;23;20156;-90
2022/12/02 14:30:38;;;;;;;42.83;21.73;;;;;;;;;;6164704;23;20435;-92
2022/12/02 14:35:50;;;;;;;55.40;24.75;;;;;;;;;;6149408;23;20195;-89
2022/12/02 14:38:17;;;;;;;46.83;23.77;;;;;;;;;;6152711;23;20152;-88
2022/12/02 14:41:09;;;;;;;39.85;24.08;;;;;;;;;;6150336;23;20745;-88
2022/12/02 14:43:35;;;;;;;50.47;25.27;;;;;;;;;;6161446;23;20204;-85
2022/12/02 14:46:01;;;;;;;42.63;23.92;;;;;;;;;;6165893;23;20153;-87
2022/12/02 14:48:30;;;;;;;46.85;25.33;;;;;;;;;;6175373;23;20161;-88
2022/12/02 14:50:56;;;;;;;46.80;23.65;;;;;;;;;;6164737;23;20152;-89
2022/12/02 14:53:23;;;;;;;48.13;26.83;;;;;;;;;;6172113;23;20169;-88
2022/12/02 14:55:49;;;;;;;41.13;24.25;;;;;;;;;;6172569;23;20149;-90
2022/12/02 14:58:15;;;;;;;46.30;27.83;;;;;;;;;;6170595;23;20161;-89
2022/12/02 15:00:42;;;;;;;45.30;24.10;;;;;;;;;;6162426;23;20148;-90
2022/12/02 15:03:08;;;;;;;49.08;27.23;;;;;;;;;;6164895;23;20299;-92
2022/12/02 15:05:35;;;;;;;44.80;22.73;;;;;;;;;;6168064;23;20162;-91
2022/12/02 15:08:01;;;;;;;45.22;23.05;;;;;;;;;;6176808;23;20125;-87
2022/12/02 15:10:30;;;;;;;49.70;24.77;;;;;;;;;;6169743;23;20204;-90
2022/12/02 15:12:56;;;;;;;39.05;21.65;;;;;;;;;;6161443;23;20243;-92
2022/12/02 15:21:52;;;;;;;41.40;23.63;;;;;;;;;;6161150;23;20502;-91
2022/12/02 15:30:43;;;;;;;32.38;20.70;;;;;;;;;;6025437;23;20177;-90
2022/12/02 15:33:24;;;;;;;36.88;20.65;;;;;;;;;;6158052;23;20198;-92
2022/12/02 15:36:00;;;;;;;;;;;;;;;;;;;;;
2022/12/02 15:38:38;;;;;;;43.97;20.38;;;;;;;;;;6160928;23;20148;-92
2022/12/02 15:44:19;;;;;;;33.83;19.30;;;;;;;;;;6103936;23;20312;-90
2022/12/02 15:46:48;;;;;;;30.77;18.70;;;;;;;;;;6199265;23;20505;-89
2022/12/02 15:49:46;;;;;;;25.17;15.70;;;;;;;;;;6176587;23;20323;-90
2022/12/02 15:55:15;;;;;;;28.80;16.90;;;;;;;;;;6166921;22;20257;-87
2022/12/02 15:57:51;;;;;;;34.40;18.83;;;;;;;;;;6148916;23;20157;-86
2022/12/02 16:00:33;;;;;;;;;;;;;;;;;;;;;
2022/12/02 16:03:09;;;;;;;25.70;16.60;;;;;;;;;;6181926;23;20271;-87
2022/12/02 16:05:57;;;;;;;;;;;;;;;;;;;;;
2022/12/02 16:08:39;;;;;;;;;;;;;;;;;;;;;
2022/12/02 16:11:31;;;;;;;24.90;17.73;;;;;;;;;;6177526;23;20244;-85
2022/12/02 16:14:00;;;;;;;27.23;17.95;;;;;;;;;;6174137;23;20454;-87
2022/12/02 16:19:18;;;;;;;24.85;17.13;;;;;;;;;;6169950;23;20668;-87
2022/12/02 16:22:04;;;;;;;26.05;16.75;;;;;;;;;;6146256;23;20290;-87
2022/12/02 16:24:36;;;;;;;25.17;16.73;;;;;;;;;;6150977;23;20209;-87
2022/12/02 16:27:11;;;;;;;25.60;16.65;;;;;;;;;;6153506;23;20167;-86
2022/12/02 16:30:00;;;;;;;25.45;17.45;;;;;;;;;;6157057;23;20152;-86
2022/12/02 16:32:31;;;;;;;22.10;14.70;;;;;;;;;;6153269;23;20164;-87
2022/12/02 16:34:57;;;;;;;32.17;17.75;;;;;;;;;;6152907;23;20208;-86
2022/12/02 16:37:24;;;;;;;28.42;17.15;;;;;;;;;;6176020;23;20179;-88
2022/12/02 16:42:39;;;;;;;30.17;16.48;;;;;;;;;;6160085;23;20199;-84
2022/12/02 16:47:58;;;;;;;33.03;19.92;;;;;;;;;;6166328;23;20167;-86
2022/12/02 16:50:24;;;;;;;29.95;18.73;;;;;;;;;;6153023;23;20159;-86
2022/12/02 16:56:37;;;;;;;31.95;18.58;;;;;;;;;;6031495;23;20203;-88
2022/12/02 17:02:40;;;;;;;31.63;19.02;;;;;;;;;;6119438;23;20177;-90
2022/12/02 17:05:13;;;;;;;28.55;18.17;;;;;;;;;;6161412;23;20227;-90
2022/12/02 17:08:17;;;;;;;30.77;17.80;;;;;;;;;;6156053;23;20499;-91
2022/12/02 17:10:43;;;;;;;23.08;14.90;;;;;;;;;;6038006;23;20786;-88
2022/12/02 17:13:09;;;;;;;30.75;16.73;;;;;;;;;;6127534;23;20255;-89
2022/12/02 17:15:38;;;;;;;33.08;19.00;;;;;;;;;;6153345;23;20161;-90
2022/12/02 17:18:18;;;;;;;27.30;16.52;;;;;;;;;;6155160;23;20194;-89
2022/12/02 17:20:44;;;;;;;29.13;17.35;;;;;;;;;;6145173;23;20268;-91
2022/12/02 17:23:12;;;;;;;27.20;16.10;;;;;;;;;;6148429;23;20202;-86
2022/12/02 17:25:38;;;;;;;24.48;16.40;;;;;;;;;;6152273;23;20657;-89
2022/12/02 17:28:04;;;;;;;29.98;16.40;;;;;;;;;;6147023;23;20229;-84
2022/12/02 17:30:33;;;;;;;21.65;13.73;;;;;;;;;;6148536;23;20149;-88
2022/12/02 17:33:00;;;;;;;23.95;14.48;;;;;;;;;;6147279;23;20243;-86
2022/12/02 17:35:36;;;;;;;29.95;17.90;;;;;;;;;;6155810;23;20161;-89
2022/12/02 17:38:02;;;;;;;28.20;16.98;;;;;;;;;;6149416;23;20158;-88
2022/12/02 17:40:28;;;;;;;27.70;16.40;;;;;;;;;;6150844;23;20145;-86
2022/12/02 17:43:20;;;;;;;27.73;15.82;;;;;;;;;;6146589;23;20464;-90
2022/12/02 17:45:46;;;;;;;32.05;18.02;;;;;;;;;;6146708;23;20230;-89
2022/12/02 17:48:12;;;;;;;27.08;16.83;;;;;;;;;;6155380;23;20175;-90
2022/12/02 17:50:38;;;;;;;28.00;16.95;;;;;;;;;;6152961;23;20212;-90
2022/12/02 17:53:07;;;;;;;22.40;15.90;;;;;;;;;;6162650;23;20178;-87
2022/12/02 17:55:33;;;;;;;20.88;13.50;;;;;;;;;;6174308;23;20186;-91
2022/12/02 17:57:59;;;;;;;25.13;16.27;;;;;;;;;;6178054;23;20157;-91
2022/12/02 18:00:26;;;;;;;26.70;16.40;;;;;;;;;;6176508;23;20177;-92
2022/12/02 18:02:59;;;;;;;26.40;15.95;;;;;;;;;;6167364;23;20366;-90
2022/12/02 18:05:26;;;;;;;28.02;15.82;;;;;;;;;;6157158;23;20160;-88
2022/12/02 18:07:55;;;;;;;33.15;16.65;;;;;;;;;;6155548;23;20186;-90
2022/12/02 18:10:23;;;;;;;29.13;16.98;;;;;;;;;;6155553;23;20164;-91
2022/12/02 18:12:52;;;;;;;33.23;18.20;;;;;;;;;;6155344;23;20316;-88
2022/12/02 18:15:19;;;;;;;26.08;16.30;;;;;;;;;;6152861;23;20401;-89
2022/12/02 18:17:52;;;;;;;31.65;17.20;;;;;;;;;;6158409;23;20145;-90
2022/12/02 18:20:18;;;;;;;29.77;17.90;;;;;;;;;;6155326;23;20159;-89
2022/12/02 18:22:46;;;;;;;28.42;16.48;;;;;;;;;;6157610;23;20180;-91
2022/12/02 18:25:12;;;;;;;23.02;14.45;;;;;;;;;;6157016;23;20184;-89
2022/12/02 18:27:44;;;;;;;25.38;16.67;;;;;;;;;;6155292;23;20184;-90
2022/12/02 18:30:11;;;;;;;26.50;15.85;;;;;;;;;;6153646;23;20604;-89
2022/12/02 18:32:40;;;;;;;26.83;15.57;;;;;;;;;;6156471;23;20148;-88
2022/12/02 18:35:08;;;;;;;28.50;15.00;;;;;;;;;;6159341;23;20164;-87
2022/12/02 18:37:34;;;;;;;33.47;17.30;;;;;;;;;;6157342;23;20187;-90
2022/12/02 18:40:00;;;;;;;29.25;17.05;;;;;;;;;;6156575;23;20157;-91
2022/12/02 18:42:26;;;;;;;30.85;17.08;;;;;;;;;;6154979;23;20181;-91
2022/12/02 18:44:55;;;;;;;30.05;18.42;;;;;;;;;;6158870;23;20175;-92
2022/12/02 18:47:25;;;;;;;27.35;16.45;;;;;;;;;;6159485;23;20183;-86
2022/12/02 18:49:53;;;;;;;29.10;18.70;;;;;;;;;;6158050;23;20191;-93
2022/12/02 18:52:22;;;;;;;28.48;16.80;;;;;;;;;;6161801;23;20162;-89
2022/12/02 18:54:48;;;;;;;25.00;16.60;;;;;;;;;;6162662;23;20172;-90
2022/12/02 18:57:54;;;;;;;;;;;;;;;;;;;;;
2022/12/02 19:00:21;;;;;;;25.00;16.83;;;;;;;;;;6200770;23;20163;-91
2022/12/02 19:05:26;;;;;;;29.92;17.48;;;;;;;;;;6191315;23;20207;-90
2022/12/02 19:08:09;;;;;;;28.45;17.88;;;;;;;;;;6180866;23;20187;-89
2022/12/02 19:10:57;;;;;;;26.17;17.15;;;;;;;;;;6181549;23;20180;-93
2022/12/02 19:16:17;;;;;;;36.47;20.00;;;;;;;;;;6080645;23;20280;-91
2022/12/02 19:59:57;;;;;;;22.23;13.73;;;;;;;;;;6188253;23;20266;-88
2022/12/02 20:02:38;;;;;;;22.75;15.00;;;;;;;;;;6179262;23;20241;-87
2022/12/02 20:05:27;;;;;;;30.00;18.40;;;;;;;;;;6149687;23;20218;-88
2022/12/02 20:07:59;;;;;;;27.23;16.50;;;;;;;;;;6135112;23;20179;-88
2022/12/02 20:10:28;;;;;;;25.17;15.10;;;;;;;;;;6180320;23;20211;-88
2022/12/02 20:12:55;;;;;;;23.27;16.20;;;;;;;;;;6155788;23;20160;-87
2022/12/02 20:15:45;;;;;;;;;;;;;;;;;;;;;
2022/12/02 20:18:25;;;;;;;24.13;16.60;;;;;;;;;;6177994;23;20201;-89
2022/12/02 20:20:55;;;;;;;25.40;15.07;;;;;;;;;;6156416;23;20164;-89
2022/12/02 20:23:35;;;;;;;28.52;16.67;;;;;;;;;;6155181;23;20185;-87
2022/12/02 20:26:19;;;;;;;26.10;15.75;;;;;;;;;;6155506;23;20641;-87
2022/12/02 20:28:45;;;;;;;18.77;14.25;;;;;;;;;;6152896;23;20179;-90
2022/12/02 20:31:14;;;;;;;25.83;15.45;;;;;;;;;;6153652;23;20163;-88
2022/12/02 20:33:40;;;;;;;18.25;13.45;;;;;;;;;;6182030;23;20159;-88
2022/12/02 20:36:12;;;;;;;27.05;14.85;;;;;;;;;;6154871;23;20461;-89
2022/12/02 20:38:43;;;;;;;23.30;15.73;;;;;;;;;;6153646;23;20152;-87
2022/12/02 20:44:26;;;;;;;24.17;15.75;;;;;;;;;;6184026;23;20187;-88
2022/12/02 20:47:14;;;;;;;;;;;;;;;;;;;;;
2022/12/02 20:50:12;;;;;;;22.73;13.90;;;;;;;;;;6203367;23;20653;-89
2022/12/02 20:52:48;;;;;;;24.20;14.65;;;;;;;;;;6169700;23;20163;-89
2022/12/02 20:55:17;;;;;;;24.20;16.08;;;;;;;;;;6171925;23;20155;-86
2022/12/02 20:58:00;;;;;;;26.98;17.65;;;;;;;;;;6166386;23;20159;-90
2022/12/02 21:00:36;;;;;;;23.10;14.50;;;;;;;;;;6168986;23;20195;-89
2022/12/02 21:03:22;;;;;;;24.75;16.98;;;;;;;;;;6144199;23;20219;-90
2022/12/02 21:05:48;;;;;;;26.83;15.80;;;;;;;;;;6168484;23;20160;-90
2022/12/02 21:08:29;;;;;;;22.90;15.38;;;;;;;;;;6168687;23;20162;-91
2022/12/02 21:11:06;;;;;;;23.45;16.15;;;;;;;;;;6130301;23;20142;-90
2022/12/02 21:13:49;;;;;;;18.88;13.85;;;;;;;;;;6152825;23;20747;-89
2022/12/02 21:19:30;;;;;;;23.95;14.23;;;;;;;;;;6135057;23;20182;-91
2022/12/02 21:22:12;;;;;;;22.42;15.02;;;;;;;;;;6150264;23;20189;-88
2022/12/02 21:24:46;;;;;;;30.48;16.80;;;;;;;;;;6151292;23;20207;-90
2022/12/02 21:27:15;;;;;;;26.45;16.20;;;;;;;;;;6148215;23;20610;-88
2022/12/02 21:29:44;;;;;;;21.73;15.43;;;;;;;;;;6125907;23;20160;-91
2022/12/02 21:32:10;;;;;;;24.38;14.98;;;;;;;;;;6149457;23;20156;-90
2022/12/02 21:37:51;;;;;;;25.70;15.05;;;;;;;;;;6138563;23;20763;-90
2022/12/02 21:40:45;;;;;;;22.83;15.00;;;;;;;;;;6159607;23;20143;-92
2022/12/02 21:43:13;;;;;;;21.58;14.48;;;;;;;;;;6144140;23;20646;-89
2022/12/02 21:45:45;;;;;;;17.58;13.73;;;;;;;;;;6152480;23;20157;-90
2022/12/02 21:48:14;;;;;;;19.38;15.00;;;;;;;;;;6146196;23;20167;-90
2022/12/02 21:51:12;;;;;;;19.65;14.60;;;;;;;;;;6149592;23;20225;-89
2022/12/02 21:53:38;;;;;;;20.65;13.02;;;;;;;;;;6065143;23;20212;-90
2022/12/02 21:56:13;;;;;;;26.90;15.90;;;;;;;;;;6146567;23;20305;-89
2022/12/02 21:58:56;;;;;;;21.05;14.30;;;;;;;;;;6123785;23;20148;-90
2022/12/02 22:01:43;;;;;;;20.90;15.50;;;;;;;;;;6150666;23;20157;-90
2022/12/02 22:04:15;;;;;;;20.38;14.23;;;;;;;;;;6149431;23;20162;-88
2022/12/02 22:06:54;;;;;;;;;;;;;;;;;;;;;
2022/12/02 22:09:29;;;;;;;19.33;13.40;;;;;;;;;;6148654;23;20223;-90
2022/12/02 22:12:06;;;;;;;28.02;16.65;;;;;;;;;;6147618;23;20394;-89
2022/12/02 22:14:37;;;;;;;19.92;12.65;;;;;;;;;;6145107;23;20184;-91
2022/12/02 22:17:13;;;;;;;20.20;15.02;;;;;;;;;;6147496;23;20535;-89
2022/12/02 22:19:39;;;;;;;22.10;14.02;;;;;;;;;;6143938;23;20178;-89
2022/12/02 22:22:12;;;;;;;19.58;14.27;;;;;;;;;;6150592;23;20617;-89
2022/12/02 22:25:04;;;;;;;23.27;15.00;;;;;;;;;;6145493;23;20526;-89
2022/12/02 22:27:42;;;;;;;25.10;16.17;;;;;;;;;;6157521;23;20208;-90
2022/12/02 22:30:21;;;;;;;;;;;;;;;;;;;;;
2022/12/02 22:33:18;;;;;;;;;;;;;;;;;;;;;
2022/12/02 22:35:50;;;;;;;20.90;14.23;;;;;;;;;;6145631;23;20463;-89
2022/12/02 22:38:22;;;;;;;21.85;13.80;;;;;;;;;;6148660;23;20180;-87
2022/12/02 22:43:47;;;;;;;17.17;11.35;;;;;;;;;;6147736;23;20195;-87
2022/12/02 22:46:24;;;;;;;16.77;12.32;;;;;;;;;;6149532;23;20160;-89
2022/12/02 22:48:50;;;;;;;18.85;11.95;;;;;;;;;;6144047;23;20527;-89